sensor_id;sensor_type;location;lat;lon;timestamp;pressure;altitude;pressure_sealevel;temperature;humidity
73941;BME280;62294;48.554;10.202;2023-12-20T00:02:06;96444.63;;;2.57;100.00
73941;BME280;62294;48.554;10.202;2023-12-20T00:04:33;96446.59;;;2.63;100.00
73941;BME280;62294;48.554;10.202;2023-12-20T00:06:59;96439.03;;;2.60;100.00
73941;BME280;62294;48.554;10.202;2023-12-20T00:09:26;96431.34;;;2.59;100.00
73941;BME280;62294;48.554;10.202;2023-12-20T00:11:53;96423.28;;;2.60;100.00
73941;BME280;62294;48.554;10.202;2023-12-20T00:14:19;96438.72;;;2.63;100.00
73941;BME280;62294;48.554;10.202;2023-12-20T00:16:46;96442.00;;;2.65;100.00
73941;BME280;62294;48.554;10.202;2023-12-20T00:19:13;96445.63;;;2.64;100.00
73941;BME280;62294;48.554;10.202;2023-12-20T00:21:40;96448.56;;;2.61;100.00
73941;BME280;62294;48.554;10.202;2023-12-20T00:24:06;96449.53;;;2.60;100.00
73941;BME280;62294;48.554;10.202;2023-12-20T00:26:33;96453.81;;;2.61;100.00
73941;BME280;62294;48.554;10.202;2023-12-20T00:29:00;96452.50;;;2.65;100.00
73941;BME280;62294;48.554;10.202;2023-12-20T00:31:26;96455.47;;;2.70;100.00
73941;BME280;62294;48.554;10.202;2023-12-20T00:33:53;96456.59;;;2.68;100.00
73941;BME280;62294;48.554;10.202;2023-12-20T00:36:20;96451.06;;;2.71;100.00
73941;BME280;62294;48.554;10.202;2023-12-20T00:38:47;96456.78;;;2.74;100.00
73941;BME280;62294;48.554;10.202;2023-12-20T00:41:14;96436.94;;;2.72;100.00
73941;BME280;62294;48.554;10.202;2023-12-20T00:43:41;96435.31;;;2.71;100.00
73941;BME280;62294;48.554;10.202;2023-12-20T00:46:08;96433.81;;;2.76;100.00
73941;BME280;62294;48.554;10.202;2023-12-20T00:48:34;96420.38;;;2.79;100.00
73941;BME280;62294;48.554;10.202;2023-12-20T00:51:01;96430.88;;;2.87;100.00
73941;BME280;62294;48.554;10.202;2023-12-20T00:53:28;96432.22;;;2.92;100.00
73941;BME280;62294;48.554;10.202;2023-12-20T00:55:54;96425.81;;;2.94;100.00
73941;BME280;62294;48.554;10.202;2023-12-20T00:58:21;96414.19;;;2.97;100.00
73941;BME280;62294;48.554;10.202;2023-12-20T01:00:48;96418.09;;;2.93;100.00
73941;BME280;62294;48.554;10.202;2023-12-20T01:03:14;96416.28;;;2.93;100.00
73941;BME280;62294;48.554;10.202;2023-12-20T01:05:42;96400.19;;;2.88;100.00
73941;BME280;62294;48.554;10.202;2023-12-20T01:08:08;96399.72;;;2.93;100.00
73941;BME280;62294;48.554;10.202;2023-12-20T01:10:35;96399.06;;;2.91;100.00
73941;BME280;62294;48.554;10.202;2023-12-20T01:13:02;96393.50;;;2.94;100.00
73941;BME280;62294;48.554;10.202;2023-12-20T01:15:29;96408.09;;;2.96;100.00
73941;BME280;62294;48.554;10.202;2023-12-20T01:17:55;96394.47;;;2.93;100.00
73941;BME280;62294;48.554;10.202;2023-12-20T01:20:23;96392.19;;;2.90;100.00
73941;BME280;62294;48.554;10.202;2023-12-20T01:22:50;96384.97;;;2.92;100.00
73941;BME280;62294;48.554;10.202;2023-12-20T01:25:17;96393.50;;;2.94;100.00
73941;BME280;62294;48.554;10.202;2023-12-20T01:27:44;96391.53;;;2.96;100.00
73941;BME280;62294;48.554;10.202;2023-12-20T01:30:11;96385.94;;;2.91;100.00
73941;BME280;62294;48.554;10.202;2023-12-20T01:32:38;96377.22;;;2.90;100.00
73941;BME280;62294;48.554;10.202;2023-12-20T01:35:04;96381.69;;;2.90;100.00
73941;BME280;62294;48.554;10.202;2023-12-20T01:37:31;96385.94;;;2.99;100.00
73941;BME280;62294;48.554;10.202;2023-12-20T01:39:57;96375.25;;;2.92;100.00
73941;BME280;62294;48.554;10.202;2023-12-20T01:42:25;96380.50;;;2.92;100.00
73941;BME280;62294;48.554;10.202;2023-12-20T01:44:51;96381.84;;;2.88;100.00
73941;BME280;62294;48.554;10.202;2023-12-20T01:47:18;96392.31;;;2.88;100.00
73941;BME280;62294;48.554;10.202;2023-12-20T01:49:45;96401.34;;;3.02;100.00
73941;BME280;62294;48.554;10.202;2023-12-20T01:52:12;96407.28;;;2.96;100.00
73941;BME280;62294;48.554;10.202;2023-12-20T01:54:40;96410.56;;;2.90;100.00
73941;BME280;62294;48.554;10.202;2023-12-20T01:57:08;96408.25;;;2.86;100.00
73941;BME280;62294;48.554;10.202;2023-12-20T01:59:37;96396.13;;;2.94;100.00
73941;BME280;62294;48.554;10.202;2023-12-20T02:02:07;96400.06;;;2.98;100.00
73941;BME280;62294;48.554;10.202;2023-12-20T02:04:34;96402.69;;;2.98;100.00
73941;BME280;62294;48.554;10.202;2023-12-20T02:07:02;96400.06;;;2.98;100.00
73941;BME280;62294;48.554;10.202;2023-12-20T02:09:30;96405.31;;;2.98;100.00
73941;BME280;62294;48.554;10.202;2023-12-20T02:11:57;96400.56;;;3.01;100.00
73941;BME280;62294;48.554;10.202;2023-12-20T02:14:23;96402.84;;;2.96;100.00
73941;BME280;62294;48.554;10.202;2023-12-20T02:16:50;96390.84;;;3.02;100.00
73941;BME280;62294;48.554;10.202;2023-12-20T02:19:17;96390.56;;;2.97;100.00
73941;BME280;62294;48.554;10.202;2023-12-20T02:21:44;96374.78;;;2.88;100.00
73941;BME280;62294;48.554;10.202;2023-12-20T02:24:11;96369.53;;;2.88;100.00
73941;BME280;62294;48.554;10.202;2023-12-20T02:26:38;96368.88;;;2.86;100.00
73941;BME280;62294;48.554;10.202;2023-12-20T02:29:05;96362.47;;;2.81;100.00
73941;BME280;62294;48.554;10.202;2023-12-20T02:31:31;96352.13;;;2.79;100.00
73941;BME280;62294;48.554;10.202;2023-12-20T02:33:58;96350.84;;;2.75;100.00
73941;BME280;62294;48.554;10.202;2023-12-20T02:36:25;96351.81;;;2.74;100.00
73941;BME280;62294;48.554;10.202;2023-12-20T02:38:51;96332.78;;;2.72;100.00
73941;BME280;62294;48.554;10.202;2023-12-20T02:41:18;96345.25;;;2.70;100.00
73941;BME280;62294;48.554;10.202;2023-12-20T02:43:45;96349.53;;;2.71;100.00
73941;BME280;62294;48.554;10.202;2023-12-20T02:46:13;96351.31;;;2.71;100.00
73941;BME280;62294;48.554;10.202;2023-12-20T02:48:42;96352.16;;;2.71;100.00
73941;BME280;62294;48.554;10.202;2023-12-20T02:51:08;96347.88;;;2.70;100.00
73941;BME280;62294;48.554;10.202;2023-12-20T02:53:35;96343.28;;;2.72;100.00
73941;BME280;62294;48.554;10.202;2023-12-20T02:56:02;96354.09;;;2.69;100.00
73941;BME280;62294;48.554;10.202;2023-12-20T02:58:29;96359.69;;;2.66;100.00
73941;BME280;62294;48.554;10.202;2023-12-20T03:00:57;96347.72;;;2.64;100.00
73941;BME280;62294;48.554;10.202;2023-12-20T03:03:24;96357.19;;;2.65;100.00
73941;BME280;62294;48.554;10.202;2023-12-20T03:05:50;96358.03;;;2.65;100.00
73941;BME280;62294;48.554;10.202;2023-12-20T03:08:17;96356.41;;;2.64;100.00
73941;BME280;62294;48.554;10.202;2023-12-20T03:10:44;96353.78;;;2.64;100.00
73941;BME280;62294;48.554;10.202;2023-12-20T03:13:11;96354.25;;;2.68;100.00
73941;BME280;62294;48.554;10.202;2023-12-20T03:15:38;96345.91;;;2.64;100.00
73941;BME280;62294;48.554;10.202;2023-12-20T03:18:04;96347.53;;;2.65;100.00
73941;BME280;62294;48.554;10.202;2023-12-20T03:20:31;96323.78;;;2.67;100.00
73941;BME280;62294;48.554;10.202;2023-12-20T03:23:00;96327.38;;;2.66;100.00
73941;BME280;62294;48.554;10.202;2023-12-20T03:25:27;96310.47;;;2.60;100.00
73941;BME280;62294;48.554;10.202;2023-12-20T03:27:54;96321.97;;;2.59;100.00
73941;BME280;62294;48.554;10.202;2023-12-20T03:30:21;96323.94;;;2.57;100.00
73941;BME280;62294;48.554;10.202;2023-12-20T03:32:48;96314.56;;;2.55;100.00
73941;BME280;62294;48.554;10.202;2023-12-20T03:35:14;96322.28;;;2.56;100.00
73941;BME280;62294;48.554;10.202;2023-12-20T03:37:41;96316.19;;;2.56;100.00
73941;BME280;62294;48.554;10.202;2023-12-20T03:40:08;96333.59;;;2.57;100.00
73941;BME280;62294;48.554;10.202;2023-12-20T03:42:35;96328.53;;;2.55;100.00
73941;BME280;62294;48.554;10.202;2023-12-20T03:45:02;96343.56;;;2.53;100.00
73941;BME280;62294;48.554;10.202;2023-12-20T03:47:28;96357.53;;;2.54;100.00
73941;BME280;62294;48.554;10.202;2023-12-20T03:49:55;96355.25;;;2.51;100.00
73941;BME280;62294;48.554;10.202;2023-12-20T03:52:22;96357.19;;;2.49;100.00
73941;BME280;62294;48.554;10.202;2023-12-20T03:54:48;96356.22;;;2.50;100.00
73941;BME280;62294;48.554;10.202;2023-12-20T03:57:15;96353.75;;;2.48;100.00
73941;BME280;62294;48.554;10.202;2023-12-20T03:59:41;96352.75;;;2.49;100.00
73941;BME280;62294;48.554;10.202;2023-12-20T04:02:08;96349.81;;;2.52;100.00
73941;BME280;62294;48.554;10.202;2023-12-20T04:04:35;96357.69;;;2.52;100.00
73941;BME280;62294;48.554;10.202;2023-12-20T04:07:02;96358.19;;;2.56;100.00
73941;BME280;62294;48.554;10.202;2023-12-20T04:09:29;96352.78;;;2.57;100.00
73941;BME280;62294;48.554;10.202;2023-12-20T04:11:56;96359.84;;;2.57;100.00
73941;BME280;62294;48.554;10.202;2023-12-20T04:14:22;96346.53;;;2.58;100.00
73941;BME280;62294;48.554;10.202;2023-12-20T04:16:49;96336.56;;;2.62;100.00
73941;BME280;62294;48.554;10.202;2023-12-20T04:19:16;96335.41;;;2.64;100.00
73941;BME280;62294;48.554;10.202;2023-12-20T04:21:42;96335.56;;;2.63;100.00
73941;BME280;62294;48.554;10.202;2023-12-20T04:24:09;96343.91;;;2.58;100.00
73941;BME280;62294;48.554;10.202;2023-12-20T04:26:36;96364.09;;;2.58;100.00
73941;BME280;62294;48.554;10.202;2023-12-20T04:29:04;96361.50;;;2.58;100.00
73941;BME280;62294;48.554;10.202;2023-12-20T04:31:30;96370.81;;;2.60;100.00
73941;BME280;62294;48.554;10.202;2023-12-20T04:33:57;96382.31;;;2.59;100.00
73941;BME280;62294;48.554;10.202;2023-12-20T04:36:24;96380.34;;;2.61;100.00
73941;BME280;62294;48.554;10.202;2023-12-20T04:38:53;96385.41;;;2.63;100.00
73941;BME280;62294;48.554;10.202;2023-12-20T04:41:20;96386.41;;;2.62;100.00
73941;BME280;62294;48.554;10.202;2023-12-20T04:43:46;96391.50;;;2.63;100.00
73941;BME280;62294;48.554;10.202;2023-12-20T04:46:12;96396.09;;;2.61;100.00
73941;BME280;62294;48.554;10.202;2023-12-20T04:48:40;96393.81;;;2.66;100.00
73941;BME280;62294;48.554;10.202;2023-12-20T04:51:06;96387.91;;;2.64;100.00
73941;BME280;62294;48.554;10.202;2023-12-20T04:53:33;96384.13;;;2.67;100.00
73941;BME280;62294;48.554;10.202;2023-12-20T04:55:59;96383.63;;;2.63;100.00
73941;BME280;62294;48.554;10.202;2023-12-20T04:58:26;96379.50;;;2.61;100.00
73941;BME280;62294;48.554;10.202;2023-12-20T05:00:53;96374.44;;;2.59;100.00
73941;BME280;62294;48.554;10.202;2023-12-20T05:03:19;96360.81;;;2.64;100.00
73941;BME280;62294;48.554;10.202;2023-12-20T05:05:46;96370.00;;;2.60;100.00
73941;BME280;62294;48.554;10.202;2023-12-20T05:08:12;96359.34;;;2.61;100.00
73941;BME280;62294;48.554;10.202;2023-12-20T05:10:39;96353.44;;;2.59;100.00
73941;BME280;62294;48.554;10.202;2023-12-20T05:13:06;96340.50;;;2.58;100.00
73941;BME280;62294;48.554;10.202;2023-12-20T05:15:34;96340.00;;;2.62;100.00
73941;BME280;62294;48.554;10.202;2023-12-20T05:18:00;96336.69;;;2.60;100.00
73941;BME280;62294;48.554;10.202;2023-12-20T05:20:27;96335.41;;;2.64;100.00
73941;BME280;62294;48.554;10.202;2023-12-20T05:22:54;96337.72;;;2.75;100.00
73941;BME280;62294;48.554;10.202;2023-12-20T05:25:20;96326.53;;;2.81;100.00
73941;BME280;62294;48.554;10.202;2023-12-20T05:27:47;96318.81;;;2.88;100.00
73941;BME280;62294;48.554;10.202;2023-12-20T05:30:14;96314.06;;;3.00;100.00
73941;BME280;62294;48.554;10.202;2023-12-20T05:32:41;96311.78;;;2.88;100.00
73941;BME280;62294;48.554;10.202;2023-12-20T05:35:08;96312.44;;;2.99;100.00
73941;BME280;62294;48.554;10.202;2023-12-20T05:37:35;96315.72;;;3.01;100.00
73941;BME280;62294;48.554;10.202;2023-12-20T05:40:01;96304.22;;;3.10;100.00
73941;BME280;62294;48.554;10.202;2023-12-20T05:42:28;96298.28;;;3.16;100.00
73941;BME280;62294;48.554;10.202;2023-12-20T05:44:54;96303.88;;;3.13;100.00
73941;BME280;62294;48.554;10.202;2023-12-20T05:47:24;96304.53;;;3.07;100.00
73941;BME280;62294;48.554;10.202;2023-12-20T05:49:51;96317.34;;;3.02;100.00
73941;BME280;62294;48.554;10.202;2023-12-20T05:52:17;96331.28;;;3.02;100.00
73941;BME280;62294;48.554;10.202;2023-12-20T05:54:44;96349.50;;;3.04;100.00
73941;BME280;62294;48.554;10.202;2023-12-20T05:57:11;96354.75;;;3.12;100.00
73941;BME280;62294;48.554;10.202;2023-12-20T05:59:37;96359.50;;;3.08;100.00
73941;BME280;62294;48.554;10.202;2023-12-20T06:02:04;96378.06;;;3.07;100.00
73941;BME280;62294;48.554;10.202;2023-12-20T06:04:31;96390.38;;;3.14;100.00
73941;BME280;62294;48.554;10.202;2023-12-20T06:06:58;96396.91;;;3.26;100.00
73941;BME280;62294;48.554;10.202;2023-12-20T06:09:29;96411.38;;;3.14;100.00
73941;BME280;62294;48.554;10.202;2023-12-20T06:11:57;96414.16;;;3.13;100.00
73941;BME280;62294;48.554;10.202;2023-12-20T06:14:24;96430.75;;;3.05;100.00
73941;BME280;62294;48.554;10.202;2023-12-20T06:16:51;96443.22;;;3.11;100.00
73941;BME280;62294;48.554;10.202;2023-12-20T06:19:17;96439.13;;;3.09;100.00
73941;BME280;62294;48.554;10.202;2023-12-20T06:21:44;96446.66;;;3.04;100.00
73941;BME280;62294;48.554;10.202;2023-12-20T06:24:11;96458.31;;;3.01;100.00
73941;BME280;62294;48.554;10.202;2023-12-20T06:26:37;96460.78;;;3.03;100.00
73941;BME280;62294;48.554;10.202;2023-12-20T06:29:04;96457.34;;;3.10;100.00
73941;BME280;62294;48.554;10.202;2023-12-20T06:31:31;96464.06;;;3.05;100.00
73941;BME280;62294;48.554;10.202;2023-12-20T06:33:59;96469.97;;;3.07;100.00
73941;BME280;62294;48.554;10.202;2023-12-20T06:36:26;96470.63;;;3.09;100.00
73941;BME280;62294;48.554;10.202;2023-12-20T06:38:53;96475.22;;;3.07;100.00
73941;BME280;62294;48.554;10.202;2023-12-20T06:41:20;96476.22;;;3.06;100.00
73941;BME280;62294;48.554;10.202;2023-12-20T06:43:46;96481.31;;;3.07;100.00
73941;BME280;62294;48.554;10.202;2023-12-20T06:46:16;96475.41;;;3.05;100.00
73941;BME280;62294;48.554;10.202;2023-12-20T06:48:43;96472.78;;;3.05;100.00
73941;BME280;62294;48.554;10.202;2023-12-20T06:51:14;96472.25;;;3.02;100.00
73941;BME280;62294;48.554;10.202;2023-12-20T06:53:42;96473.72;;;3.04;100.00
73941;BME280;62294;48.554;10.202;2023-12-20T06:56:10;96485.06;;;3.05;100.00
73941;BME280;62294;48.554;10.202;2023-12-20T06:58:41;96488.19;;;3.00;100.00
73941;BME280;62294;48.554;10.202;2023-12-20T07:01:14;96494.56;;;2.98;100.00
73941;BME280;62294;48.554;10.202;2023-12-20T07:03:42;96498.50;;;2.94;100.00
73941;BME280;62294;48.554;10.202;2023-12-20T07:06:08;96488.00;;;2.94;100.00
73941;BME280;62294;48.554;10.202;2023-12-20T07:08:35;96486.34;;;2.93;100.00
73941;BME280;62294;48.554;10.202;2023-12-20T07:11:02;96475.38;;;2.89;100.00
73941;BME280;62294;48.554;10.202;2023-12-20T07:13:29;96482.25;;;2.90;100.00
73941;BME280;62294;48.554;10.202;2023-12-20T07:15:57;96477.00;;;2.90;100.00
73941;BME280;62294;48.554;10.202;2023-12-20T07:18:23;96471.25;;;2.86;100.00
73941;BME280;62294;48.554;10.202;2023-12-20T07:20:50;96477.00;;;2.90;100.00
73941;BME280;62294;48.554;10.202;2023-12-20T07:23:16;96469.78;;;2.92;100.00
73941;BME280;62294;48.554;10.202;2023-12-20T07:25:43;96442.53;;;2.93;100.00
73941;BME280;62294;48.554;10.202;2023-12-20T07:28:10;96447.16;;;2.91;100.00
73941;BME280;62294;48.554;10.202;2023-12-20T07:30:36;96434.84;;;2.92;100.00
73941;BME280;62294;48.554;10.202;2023-12-20T07:33:03;96444.34;;;2.93;100.00
73941;BME280;62294;48.554;10.202;2023-12-20T07:35:30;96423.69;;;2.90;100.00
73941;BME280;62294;48.554;10.202;2023-12-20T07:37:56;96389.22;;;2.93;100.00
73941;BME280;62294;48.554;10.202;2023-12-20T07:40:23;96364.75;;;2.92;100.00
73941;BME280;62294;48.554;10.202;2023-12-20T07:42:50;96345.59;;;2.92;100.00
73941;BME280;62294;48.554;10.202;2023-12-20T07:45:17;96307.84;;;2.93;100.00
73941;BME280;62294;48.554;10.202;2023-12-20T07:47:43;96281.44;;;2.94;100.00
73941;BME280;62294;48.554;10.202;2023-12-20T07:50:10;96254.19;;;2.95;100.00
73941;BME280;62294;48.554;10.202;2023-12-20T07:52:37;96245.66;;;3.01;100.00
73941;BME280;62294;48.554;10.202;2023-12-20T07:55:04;96234.97;;;3.03;100.00
73941;BME280;62294;48.554;10.202;2023-12-20T07:57:31;96216.25;;;3.06;100.00
73941;BME280;62294;48.554;10.202;2023-12-20T07:59:57;96218.22;;;3.12;100.00
73941;BME280;62294;48.554;10.202;2023-12-20T08:02:24;96200.16;;;3.17;100.00
73941;BME280;62294;48.554;10.202;2023-12-20T08:04:50;96196.03;;;3.14;100.00
73941;BME280;62294;48.554;10.202;2023-12-20T08:07:17;96199.78;;;3.20;100.00
73941;BME280;62294;48.554;10.202;2023-12-20T08:09:43;96198.28;;;3.25;100.00
73941;BME280;62294;48.554;10.202;2023-12-20T08:12:10;96198.47;;;3.24;100.00
73941;BME280;62294;48.554;10.202;2023-12-20T08:14:37;96196.97;;;3.29;100.00
73941;BME280;62294;48.554;10.202;2023-12-20T08:17:04;96207.47;;;3.29;100.00
73941;BME280;62294;48.554;10.202;2023-12-20T08:19:30;96196.31;;;3.27;100.00
73941;BME280;62294;48.554;10.202;2023-12-20T08:21:57;96208.63;;;3.27;100.00
73941;BME280;62294;48.554;10.202;2023-12-20T08:24:24;96198.94;;;3.27;100.00
73941;BME280;62294;48.554;10.202;2023-12-20T08:26:50;96197.97;;;3.28;100.00
73941;BME280;62294;48.554;10.202;2023-12-20T08:29:17;96191.03;;;3.35;100.00
73941;BME280;62294;48.554;10.202;2023-12-20T08:31:43;96184.13;;;3.34;100.00
73941;BME280;62294;48.554;10.202;2023-12-20T08:34:10;96186.94;;;3.33;100.00
73941;BME280;62294;48.554;10.202;2023-12-20T08:36:39;96175.75;;;3.39;100.00
73941;BME280;62294;48.554;10.202;2023-12-20T08:39:05;96170.81;;;3.44;100.00
73941;BME280;62294;48.554;10.202;2023-12-20T08:41:35;96164.91;;;3.42;100.00
73941;BME280;62294;48.554;10.202;2023-12-20T08:44:01;96144.84;;;3.41;100.00
73941;BME280;62294;48.554;10.202;2023-12-20T08:46:28;96138.91;;;3.47;100.00
73941;BME280;62294;48.554;10.202;2023-12-20T08:48:55;96143.59;;;3.59;100.00
73941;BME280;62294;48.554;10.202;2023-12-20T08:51:22;96132.91;;;3.61;100.00
73941;BME280;62294;48.554;10.202;2023-12-20T08:53:50;96132.59;;;3.56;100.00
73941;BME280;62294;48.554;10.202;2023-12-20T08:56:16;96119.84;;;3.53;100.00
73941;BME280;62294;48.554;10.202;2023-12-20T08:58:45;96125.09;;;3.53;100.00
73941;BME280;62294;48.554;10.202;2023-12-20T09:01:13;96119.78;;;3.61;100.00
73941;BME280;62294;48.554;10.202;2023-12-20T09:03:40;96119.78;;;3.61;100.00
73941;BME280;62294;48.554;10.202;2023-12-20T09:06:07;96105.47;;;3.64;100.00
73941;BME280;62294;48.554;10.202;2023-12-20T09:08:33;96098.41;;;3.64;100.00
73941;BME280;62294;48.554;10.202;2023-12-20T09:11:00;96090.81;;;3.69;100.00
73941;BME280;62294;48.554;10.202;2023-12-20T09:13:27;96086.22;;;3.71;100.00
73941;BME280;62294;48.554;10.202;2023-12-20T09:15:55;96085.78;;;3.82;100.00
73941;BME280;62294;48.554;10.202;2023-12-20T09:18:22;96091.91;;;3.75;100.00
73941;BME280;62294;48.554;10.202;2023-12-20T09:20:49;96089.56;;;4.02;100.00
73941;BME280;62294;48.554;10.202;2023-12-20T09:23:16;96098.31;;;4.17;100.00
73941;BME280;62294;48.554;10.202;2023-12-20T09:25:43;96097.13;;;4.20;100.00
73941;BME280;62294;48.554;10.202;2023-12-20T09:28:11;96096.47;;;4.03;100.00
73941;BME280;62294;48.554;10.202;2023-12-20T09:30:37;96090.47;;;4.09;100.00
73941;BME280;62294;48.554;10.202;2023-12-20T09:33:07;96099.09;;;4.03;100.00
73941;BME280;62294;48.554;10.202;2023-12-20T09:35:33;96112.88;;;4.05;100.00
73941;BME280;62294;48.554;10.202;2023-12-20T09:38:00;96134.31;;;4.17;100.00
73941;BME280;62294;48.554;10.202;2023-12-20T09:40:27;96138.53;;;4.03;100.00
73941;BME280;62294;48.554;10.202;2023-12-20T09:43:03;96172.88;;;4.02;100.00
73941;BME280;62294;48.554;10.202;2023-12-20T09:45:31;96185.59;;;3.98;100.00
73941;BME280;62294;48.554;10.202;2023-12-20T09:47:58;96271.00;;;4.02;100.00
73941;BME280;62294;48.554;10.202;2023-12-20T09:50:25;96354.16;;;4.11;100.00
73941;BME280;62294;48.554;10.202;2023-12-20T09:52:53;96403.78;;;4.14;100.00
73941;BME280;62294;48.554;10.202;2023-12-20T09:55:24;96433.88;;;4.12;100.00
73941;BME280;62294;48.554;10.202;2023-12-20T09:57:51;96452.25;;;4.20;100.00
73941;BME280;62294;48.554;10.202;2023-12-20T10:00:18;96464.09;;;4.16;100.00
73941;BME280;62294;48.554;10.202;2023-12-20T10:02:58;96487.75;;;4.32;100.00
73941;BME280;62294;48.554;10.202;2023-12-20T10:05:30;96485.28;;;4.30;100.00
73941;BME280;62294;48.554;10.202;2023-12-20T10:07:58;96513.91;;;4.25;100.00
73941;BME280;62294;48.554;10.202;2023-12-20T10:10:26;96519.13;;;4.42;100.00
73941;BME280;62294;48.554;10.202;2023-12-20T10:13:09;96519.81;;;4.36;100.00
73941;BME280;62294;48.554;10.202;2023-12-20T10:15:37;96533.56;;;4.54;100.00
73941;BME280;62294;48.554;10.202;2023-12-20T10:18:04;96534.09;;;4.80;100.00
73941;BME280;62294;48.554;10.202;2023-12-20T10:20:31;96530.53;;;5.03;100.00
73941;BME280;62294;48.554;10.202;2023-12-20T10:23:00;96521.84;;;5.26;100.00
73941;BME280;62294;48.554;10.202;2023-12-20T10:25:27;96525.13;;;5.50;100.00
73941;BME280;62294;48.554;10.202;2023-12-20T10:28:13;96539.66;;;5.69;100.00
73941;BME280;62294;48.554;10.202;2023-12-20T10:30:41;96537.03;;;5.46;100.00
73941;BME280;62294;48.554;10.202;2023-12-20T10:33:09;96563.91;;;5.11;100.00
73941;BME280;62294;48.554;10.202;2023-12-20T10:35:39;96569.44;;;4.93;100.00
73941;BME280;62294;48.554;10.202;2023-12-20T10:38:12;96584.00;;;4.81;100.00
73941;BME280;62294;48.554;10.202;2023-12-20T10:40:40;96574.94;;;4.76;100.00
73941;BME280;62294;48.554;10.202;2023-12-20T10:43:08;96593.47;;;4.52;100.00
73941;BME280;62294;48.554;10.202;2023-12-20T10:45:35;96593.13;;;4.39;100.00
73941;BME280;62294;48.554;10.202;2023-12-20T10:48:02;96581.22;;;4.67;100.00
73941;BME280;62294;48.554;10.202;2023-12-20T10:50:30;96584.13;;;4.80;100.00
73941;BME280;62294;48.554;10.202;2023-12-20T10:52:58;96599.34;;;4.62;100.00
73941;BME280;62294;48.554;10.202;2023-12-20T10:55:25;96608.44;;;4.51;100.00
73941;BME280;62294;48.554;10.202;2023-12-20T10:57:54;96632.91;;;4.60;100.00
73941;BME280;62294;48.554;10.202;2023-12-20T11:00:29;96635.22;;;4.55;100.00
73941;BME280;62294;48.554;10.202;2023-12-20T11:03:00;96643.78;;;4.49;100.00
73941;BME280;62294;48.554;10.202;2023-12-20T11:05:38;96647.75;;;4.45;100.00
73941;BME280;62294;48.554;10.202;2023-12-20T11:08:20;96654.50;;;4.47;100.00
73941;BME280;62294;48.554;10.202;2023-12-20T11:13:30;96671.44;;;4.37;100.00
73941;BME280;62294;48.554;10.202;2023-12-20T11:15:59;96676.03;;;4.35;100.00
73941;BME280;62294;48.554;10.202;2023-12-20T11:18:31;96699.22;;;4.23;100.00
73941;BME280;62294;48.554;10.202;2023-12-20T11:21:04;96695.78;;;4.30;100.00
73941;BME280;62294;48.554;10.202;2023-12-20T11:23:32;96698.25;;;4.32;100.00
73941;BME280;62294;48.554;10.202;2023-12-20T11:26:01;96702.69;;;4.31;100.00
73941;BME280;62294;48.554;10.202;2023-12-20T11:28:28;96726.03;;;4.18;100.00
73941;BME280;62294;48.554;10.202;2023-12-20T11:30:58;96732.91;;;4.03;100.00
73941;BME280;62294;48.554;10.202;2023-12-20T11:33:46;96730.94;;;4.13;100.00
73941;BME280;62294;48.554;10.202;2023-12-20T11:36:18;96722.09;;;4.14;100.00
73941;BME280;62294;48.554;10.202;2023-12-20T11:38:57;96738.97;;;4.04;100.00
73941;BME280;62294;48.554;10.202;2023-12-20T11:41:25;96747.38;;;4.07;100.00
73941;BME280;62294;48.554;10.202;2023-12-20T11:43:55;96733.78;;;4.28;100.00
73941;BME280;62294;48.554;10.202;2023-12-20T11:46:22;96755.16;;;4.33;100.00
73941;BME280;62294;48.554;10.202;2023-12-20T11:48:49;96769.47;;;4.39;100.00
73941;BME280;62294;48.554;10.202;2023-12-20T11:51:16;96791.84;;;4.43;100.00
73941;BME280;62294;48.554;10.202;2023-12-20T11:53:42;96808.09;;;4.38;100.00
73941;BME280;62294;48.554;10.202;2023-12-20T11:56:09;96818.63;;;4.38;100.00
73941;BME280;62294;48.554;10.202;2023-12-20T11:58:36;96845.78;;;4.39;100.00
73941;BME280;62294;48.554;10.202;2023-12-20T12:01:04;96856.31;;;4.39;100.00
73941;BME280;62294;48.554;10.202;2023-12-20T12:03:31;96867.53;;;4.49;100.00
73941;BME280;62294;48.554;10.202;2023-12-20T12:05:57;96872.00;;;4.64;100.00
73941;BME280;62294;48.554;10.202;2023-12-20T12:08:25;96890.56;;;4.55;100.00
73941;BME280;62294;48.554;10.202;2023-12-20T12:10:51;96883.63;;;4.46;100.00
73941;BME280;62294;48.554;10.202;2023-12-20T12:13:18;96867.22;;;4.60;100.00
73941;BME280;62294;48.554;10.202;2023-12-20T12:15:45;96860.81;;;4.78;100.00
73941;BME280;62294;48.554;10.202;2023-12-20T12:18:15;96860.66;;;4.80;100.00
73941;BME280;62294;48.554;10.202;2023-12-20T12:20:42;96860.69;;;4.88;100.00
73941;BME280;62294;48.554;10.202;2023-12-20T12:23:09;96841.53;;;5.26;100.00
73941;BME280;62294;48.554;10.202;2023-12-20T12:25:36;96852.41;;;5.23;100.00
73941;BME280;62294;48.554;10.202;2023-12-20T12:28:08;96861.63;;;5.11;100.00
73941;BME280;62294;48.554;10.202;2023-12-20T12:30:35;96865.75;;;5.22;100.00
73941;BME280;62294;48.554;10.202;2023-12-20T12:33:11;96866.59;;;5.14;100.00
73941;BME280;62294;48.554;10.202;2023-12-20T12:35:40;96874.16;;;5.09;100.00
73941;BME280;62294;48.554;10.202;2023-12-20T12:38:07;96890.13;;;4.83;100.00
73941;BME280;62294;48.554;10.202;2023-12-20T12:40:34;96879.59;;;4.83;100.00
73941;BME280;62294;48.554;10.202;2023-12-20T12:43:03;96872.88;;;5.13;100.00
73941;BME280;62294;48.554;10.202;2023-12-20T12:45:30;96877.63;;;4.85;100.00
73941;BME280;62294;48.554;10.202;2023-12-20T12:47:57;96877.13;;;4.90;100.00
73941;BME280;62294;48.554;10.202;2023-12-20T12:50:23;96884.66;;;4.77;100.00
73941;BME280;62294;48.554;10.202;2023-12-20T12:52:51;96866.91;;;4.71;100.00
73941;BME280;62294;48.554;10.202;2023-12-20T12:55:17;96875.13;;;4.68;100.00